sensor_id;sensor_type;location;lat;lon;timestamp;pressure;altitude;pressure_sealevel;temperature
69785;BMP280;14177;51.520;6.764;2023-05-10T00:01:15;100563.03;;;14.60
69785;BMP280;14177;51.520;6.764;2023-05-10T00:03:41;100567.41;;;14.60
69785;BMP280;14177;51.520;6.764;2023-05-10T00:06:08;100559.72;;;14.57
69785;BMP280;14177;51.520;6.764;2023-05-10T00:08:35;100567.19;;;14.48
69785;BMP280;14177;51.520;6.764;2023-05-10T00:11:02;100570.97;;;14.42
69785;BMP280;14177;51.520;6.764;2023-05-10T00:13:29;100565.88;;;14.39
69785;BMP280;14177;51.520;6.764;2023-05-10T00:15:57;100562.66;;;14.34
69785;BMP280;14177;51.520;6.764;2023-05-10T00:18:24;100562.72;;;14.33
69785;BMP280;14177;51.520;6.764;2023-05-10T00:20:51;100566.25;;;14.32
69785;BMP280;14177;51.520;6.764;2023-05-10T00:23:17;100568.19;;;14.28
69785;BMP280;14177;51.520;6.764;2023-05-10T00:25:44;100564.94;;;14.23
69785;BMP280;14177;51.520;6.764;2023-05-10T00:28:11;100561.47;;;14.23
69785;BMP280;14177;51.520;6.764;2023-05-10T00:30:38;100565.84;;;14.22
69785;BMP280;14177;51.520;6.764;2023-05-10T00:33:05;100565.91;;;14.21
69785;BMP280;14177;51.520;6.764;2023-05-10T00:35:32;100563.41;;;14.19
69785;BMP280;14177;51.520;6.764;2023-05-10T00:37:59;100564.31;;;14.18
69785;BMP280;14177;51.520;6.764;2023-05-10T00:40:26;100560.94;;;14.16
69785;BMP280;14177;51.520;6.764;2023-05-10T00:42:58;100562.47;;;14.20
69785;BMP280;14177;51.520;6.764;2023-05-10T00:45:26;100566.78;;;14.21
69785;BMP280;14177;51.520;6.764;2023-05-10T00:47:53;100565.09;;;14.20
69785;BMP280;14177;51.520;6.764;2023-05-10T00:50:23;100569.47;;;14.20
69785;BMP280;14177;51.520;6.764;2023-05-10T00:52:50;100565.75;;;14.24
69785;BMP280;14177;51.520;6.764;2023-05-10T00:55:19;100564.78;;;14.26
69785;BMP280;14177;51.520;6.764;2023-05-10T00:57:47;100562.94;;;14.28
69785;BMP280;14177;51.520;6.764;2023-05-10T01:00:14;100568.09;;;14.30
69785;BMP280;14177;51.520;6.764;2023-05-10T01:02:45;100569.72;;;14.32
69785;BMP280;14177;51.520;6.764;2023-05-10T01:05:13;100567.25;;;14.29
69785;BMP280;14177;51.520;6.764;2023-05-10T01:07:40;100574.31;;;14.27
69785;BMP280;14177;51.520;6.764;2023-05-10T01:10:09;100581.38;;;14.25
69785;BMP280;14177;51.520;6.764;2023-05-10T01:12:40;100570.94;;;14.25
69785;BMP280;14177;51.520;6.764;2023-05-10T01:15:09;100576.06;;;14.27
69785;BMP280;14177;51.520;6.764;2023-05-10T01:17:40;100579.69;;;14.24
69785;BMP280;14177;51.520;6.764;2023-05-10T01:20:10;100584.91;;;14.24
69785;BMP280;14177;51.520;6.764;2023-05-10T01:23:14;100575.25;;;14.26
69785;BMP280;14177;51.520;6.764;2023-05-10T01:26:16;100576.94;;;14.27
69785;BMP280;14177;51.520;6.764;2023-05-10T01:31:58;100573.53;;;14.25
69785;BMP280;14177;51.520;6.764;2023-05-10T01:34:47;100584.16;;;14.22
69785;BMP280;14177;51.520;6.764;2023-05-10T01:37:27;100579.84;;;14.21
69785;BMP280;14177;51.520;6.764;2023-05-10T01:40:13;100578.16;;;14.20
69785;BMP280;14177;51.520;6.764;2023-05-10T01:42:51;100585.97;;;14.20
69785;BMP280;14177;51.520;6.764;2023-05-10T01:45:47;100588.59;;;14.20
69785;BMP280;14177;51.520;6.764;2023-05-10T01:48:17;100588.50;;;14.22
69785;BMP280;14177;51.520;6.764;2023-05-10T01:50:48;100594.59;;;14.22
69785;BMP280;14177;51.520;6.764;2023-05-10T01:53:18;100595.66;;;14.18
69785;BMP280;14177;51.520;6.764;2023-05-10T01:55:53;100585.34;;;14.15
69785;BMP280;14177;51.520;6.764;2023-05-10T01:58:32;100585.47;;;14.12
69785;BMP280;14177;51.520;6.764;2023-05-10T02:01:03;100590.94;;;14.08
69785;BMP280;14177;51.520;6.764;2023-05-10T02:03:34;100586.78;;;14.04
69785;BMP280;14177;51.520;6.764;2023-05-10T02:06:04;100590.34;;;14.01
69785;BMP280;14177;51.520;6.764;2023-05-10T02:08:33;100591.41;;;13.97
69785;BMP280;14177;51.520;6.764;2023-05-10T02:11:04;100580.19;;;13.95
69785;BMP280;14177;51.520;6.764;2023-05-10T02:13:35;100578.31;;;13.99
69785;BMP280;14177;51.520;6.764;2023-05-10T02:16:05;100583.31;;;14.03
69785;BMP280;14177;51.520;6.764;2023-05-10T02:18:33;100588.38;;;14.06
69785;BMP280;14177;51.520;6.764;2023-05-10T02:21:02;100591.75;;;14.08
69785;BMP280;14177;51.520;6.764;2023-05-10T02:23:31;100595.16;;;14.10
69785;BMP280;14177;51.520;6.764;2023-05-10T02:26:00;100593.44;;;14.09
69785;BMP280;14177;51.520;6.764;2023-05-10T02:28:30;100600.38;;;14.10
69785;BMP280;14177;51.520;6.764;2023-05-10T02:30:58;100594.16;;;14.13
69785;BMP280;14177;51.520;6.764;2023-05-10T02:33:27;100594.06;;;14.16
69785;BMP280;14177;51.520;6.764;2023-05-10T02:35:56;100594.06;;;14.16
69785;BMP280;14177;51.520;6.764;2023-05-10T02:38:25;100595.91;;;14.12
69785;BMP280;14177;51.520;6.764;2023-05-10T02:40:53;100596.97;;;14.08
69785;BMP280;14177;51.520;6.764;2023-05-10T02:43:23;100600.66;;;14.04
69785;BMP280;14177;51.520;6.764;2023-05-10T02:45:51;100594.75;;;14.01
69785;BMP280;14177;51.520;6.764;2023-05-10T02:48:18;100595.72;;;13.98
69785;BMP280;14177;51.520;6.764;2023-05-10T02:50:47;100596.59;;;13.99
69785;BMP280;14177;51.520;6.764;2023-05-10T02:53:26;100601.81;;;13.99
69785;BMP280;14177;51.520;6.764;2023-05-10T02:56:00;100596.66;;;13.97
69785;BMP280;14177;51.520;6.764;2023-05-10T02:58:28;100593.34;;;13.94
69785;BMP280;14177;51.520;6.764;2023-05-10T03:00:55;100593.34;;;13.94
69785;BMP280;14177;51.520;6.764;2023-05-10T03:03:22;100601.25;;;13.92
69785;BMP280;14177;51.520;6.764;2023-05-10T03:05:50;100596.94;;;13.91
69785;BMP280;14177;51.520;6.764;2023-05-10T03:08:17;100597.72;;;13.93
69785;BMP280;14177;51.520;6.764;2023-05-10T03:11:36;100595.09;;;13.93
69785;BMP280;14177;51.520;6.764;2023-05-10T03:15:00;100596.88;;;13.93
69785;BMP280;14177;51.520;6.764;2023-05-10T03:19:55;100603.72;;;13.95
69785;BMP280;14177;51.520;6.764;2023-05-10T03:22:55;100602.94;;;13.93
69785;BMP280;14177;51.520;6.764;2023-05-10T03:25:26;100606.31;;;13.95
69785;BMP280;14177;51.520;6.764;2023-05-10T03:27:56;100621.06;;;13.96
69785;BMP280;14177;51.520;6.764;2023-05-10T03:30:25;100617.63;;;13.96
69785;BMP280;14177;51.520;6.764;2023-05-10T03:32:52;100615.84;;;13.96
69785;BMP280;14177;51.520;6.764;2023-05-10T03:35:19;100621.94;;;13.97
69785;BMP280;14177;51.520;6.764;2023-05-10T03:37:46;100623.69;;;13.96
69785;BMP280;14177;51.520;6.764;2023-05-10T03:40:14;100622.84;;;13.96
69785;BMP280;14177;51.520;6.764;2023-05-10T03:42:42;100620.16;;;13.97
69785;BMP280;14177;51.520;6.764;2023-05-10T03:45:10;100617.53;;;13.97
69785;BMP280;14177;51.520;6.764;2023-05-10T03:47:37;100623.53;;;13.99
69785;BMP280;14177;51.520;6.764;2023-05-10T03:50:05;100620.88;;;14.01
69785;BMP280;14177;51.520;6.764;2023-05-10T03:52:32;100634.63;;;14.04
69785;BMP280;14177;51.520;6.764;2023-05-10T03:54:59;100633.78;;;14.04
69785;BMP280;14177;51.520;6.764;2023-05-10T03:57:26;100626.88;;;14.03
69785;BMP280;14177;51.520;6.764;2023-05-10T03:59:53;100626.91;;;14.01
69785;BMP280;14177;51.520;6.764;2023-05-10T04:02:20;100628.75;;;13.99
69785;BMP280;14177;51.520;6.764;2023-05-10T04:04:47;100632.16;;;14.01
69785;BMP280;14177;51.520;6.764;2023-05-10T04:07:15;100629.34;;;14.06
69785;BMP280;14177;51.520;6.764;2023-05-10T04:09:42;100633.00;;;14.02
69785;BMP280;14177;51.520;6.764;2023-05-10T04:12:09;100630.44;;;14.00
69785;BMP280;14177;51.520;6.764;2023-05-10T04:14:36;100632.28;;;13.98
69785;BMP280;14177;51.520;6.764;2023-05-10T04:17:03;100635.69;;;14.00
69785;BMP280;14177;51.520;6.764;2023-05-10T04:19:31;100633.97;;;13.99
69785;BMP280;14177;51.520;6.764;2023-05-10T04:21:59;100637.22;;;14.04
69785;BMP280;14177;51.520;6.764;2023-05-10T04:24:26;100636.25;;;14.07
69785;BMP280;14177;51.520;6.764;2023-05-10T04:26:54;100641.38;;;14.08
69785;BMP280;14177;51.520;6.764;2023-05-10T04:29:23;100638.78;;;14.08
69785;BMP280;14177;51.520;6.764;2023-05-10T04:31:50;100638.72;;;14.10
69785;BMP280;14177;51.520;6.764;2023-05-10T04:34:17;100647.38;;;14.10
69785;BMP280;14177;51.520;6.764;2023-05-10T04:36:45;100650.88;;;14.11
69785;BMP280;14177;51.520;6.764;2023-05-10T04:39:12;100647.34;;;14.12
69785;BMP280;14177;51.520;6.764;2023-05-10T04:41:40;100645.44;;;14.15
69785;BMP280;14177;51.520;6.764;2023-05-10T04:44:07;100644.63;;;14.13
69785;BMP280;14177;51.520;6.764;2023-05-10T04:46:34;100648.00;;;14.17
69785;BMP280;14177;51.520;6.764;2023-05-10T04:49:01;100645.44;;;14.15
69785;BMP280;14177;51.520;6.764;2023-05-10T04:51:28;100653.38;;;14.14
69785;BMP280;14177;51.520;6.764;2023-05-10T04:53:55;100650.59;;;14.17
69785;BMP280;14177;51.520;6.764;2023-05-10T04:56:32;100654.75;;;14.21
69785;BMP280;14177;51.520;6.764;2023-05-10T04:58:59;100645.00;;;14.24
69785;BMP280;14177;51.520;6.764;2023-05-10T05:01:25;100655.31;;;14.27
69785;BMP280;14177;51.520;6.764;2023-05-10T05:03:52;100652.69;;;14.27
69785;BMP280;14177;51.520;6.764;2023-05-10T05:06:20;100659.53;;;14.30
69785;BMP280;14177;51.520;6.764;2023-05-10T05:08:51;100654.38;;;14.28
69785;BMP280;14177;51.520;6.764;2023-05-10T05:11:18;100660.41;;;14.30
69785;BMP280;14177;51.520;6.764;2023-05-10T05:13:46;100663.94;;;14.29
69785;BMP280;14177;51.520;6.764;2023-05-10T05:16:13;100663.00;;;14.30
69785;BMP280;14177;51.520;6.764;2023-05-10T05:18:39;100670.75;;;14.32
69785;BMP280;14177;51.520;6.764;2023-05-10T05:21:16;100670.69;;;14.33
69785;BMP280;14177;51.520;6.764;2023-05-10T05:23:44;100668.84;;;14.35
69785;BMP280;14177;51.520;6.764;2023-05-10T05:26:11;100677.31;;;14.40
69785;BMP280;14177;51.520;6.764;2023-05-10T05:28:38;100684.31;;;14.40
69785;BMP280;14177;51.520;6.764;2023-05-10T05:31:08;100682.56;;;14.40
69785;BMP280;14177;51.520;6.764;2023-05-10T05:33:36;100685.16;;;14.40
69785;BMP280;14177;51.520;6.764;2023-05-10T05:36:05;100676.41;;;14.41
69785;BMP280;14177;51.520;6.764;2023-05-10T05:38:32;100682.41;;;14.43
69785;BMP280;14177;51.520;6.764;2023-05-10T05:40:59;100686.72;;;14.44
69785;BMP280;14177;51.520;6.764;2023-05-10T05:43:26;100683.19;;;14.45
69785;BMP280;14177;51.520;6.764;2023-05-10T05:45:53;100690.09;;;14.46
69785;BMP280;14177;51.520;6.764;2023-05-10T05:48:21;100691.78;;;14.47
69785;BMP280;14177;51.520;6.764;2023-05-10T05:50:48;100692.56;;;14.49
69785;BMP280;14177;51.520;6.764;2023-05-10T05:53:15;100695.31;;;14.46
69785;BMP280;14177;51.520;6.764;2023-05-10T05:56:01;100693.50;;;14.48
69785;BMP280;14177;51.520;6.764;2023-05-10T05:58:28;100695.81;;;14.54
69785;BMP280;14177;51.520;6.764;2023-05-10T06:00:55;100696.72;;;14.53
69785;BMP280;14177;51.520;6.764;2023-05-10T06:03:22;100701.03;;;14.54
69785;BMP280;14177;51.520;6.764;2023-05-10T06:05:49;100709.66;;;14.56
69785;BMP280;14177;51.520;6.764;2023-05-10T06:08:16;100710.34;;;14.59
69785;BMP280;14177;51.520;6.764;2023-05-10T06:10:43;100709.34;;;14.62
69785;BMP280;14177;51.520;6.764;2023-05-10T06:13:11;100716.81;;;14.69
69785;BMP280;14177;51.520;6.764;2023-05-10T06:15:38;100716.28;;;14.80
69785;BMP280;14177;51.520;6.764;2023-05-10T06:18:05;100717.00;;;14.83
69785;BMP280;14177;51.520;6.764;2023-05-10T06:20:32;100719.38;;;14.88
69785;BMP280;14177;51.520;6.764;2023-05-10T06:22:59;100718.16;;;14.95
69785;BMP280;14177;51.520;6.764;2023-05-10T06:25:26;100721.53;;;14.97
69785;BMP280;14177;51.520;6.764;2023-05-10T06:27:53;100722.47;;;14.96
69785;BMP280;14177;51.520;6.764;2023-05-10T06:30:25;100728.22;;;15.02
69785;BMP280;14177;51.520;6.764;2023-05-10T06:32:55;100733.56;;;15.01
69785;BMP280;14177;51.520;6.764;2023-05-10T06:35:23;100732.94;;;14.96
69785;BMP280;14177;51.520;6.764;2023-05-10T06:37:50;100734.16;;;14.89
69785;BMP280;14177;51.520;6.764;2023-05-10T06:40:18;100745.78;;;14.83
69785;BMP280;14177;51.520;6.764;2023-05-10T06:42:46;100736.38;;;14.79
69785;BMP280;14177;51.520;6.764;2023-05-10T06:45:15;100737.22;;;14.80
69785;BMP280;14177;51.520;6.764;2023-05-10T06:47:43;100743.97;;;14.84
69785;BMP280;14177;51.520;6.764;2023-05-10T06:50:10;100744.75;;;14.86
69785;BMP280;14177;51.520;6.764;2023-05-10T06:52:40;100741.06;;;14.90
69785;BMP280;14177;51.520;6.764;2023-05-10T06:55:08;100751.09;;;14.99
69785;BMP280;14177;51.520;6.764;2023-05-10T06:57:35;100749.88;;;15.06
69785;BMP280;14177;51.520;6.764;2023-05-10T07:00:03;100743.56;;;15.10
69785;BMP280;14177;51.520;6.764;2023-05-10T07:02:33;100744.03;;;15.18
69785;BMP280;14177;51.520;6.764;2023-05-10T07:05:00;100747.31;;;15.21
69785;BMP280;14177;51.520;6.764;2023-05-10T07:07:29;100744.19;;;15.32
69785;BMP280;14177;51.520;6.764;2023-05-10T07:09:56;100747.81;;;15.46
69785;BMP280;14177;51.520;6.764;2023-05-10T07:12:24;100749.41;;;15.49
69785;BMP280;14177;51.520;6.764;2023-05-10T07:14:52;100759.28;;;15.44
69785;BMP280;14177;51.520;6.764;2023-05-10T07:17:19;100759.22;;;15.45
69785;BMP280;14177;51.520;6.764;2023-05-10T07:19:46;100756.66;;;15.44
69785;BMP280;14177;51.520;6.764;2023-05-10T07:22:13;100756.34;;;15.50
69785;BMP280;14177;51.520;6.764;2023-05-10T07:24:40;100756.97;;;15.55
69785;BMP280;14177;51.520;6.764;2023-05-10T07:27:07;100754.78;;;15.63
69785;BMP280;14177;51.520;6.764;2023-05-10T07:29:35;100758.94;;;15.67
69785;BMP280;14177;51.520;6.764;2023-05-10T07:32:02;100751.19;;;15.65
69785;BMP280;14177;51.520;6.764;2023-05-10T07:34:29;100759.19;;;15.62
69785;BMP280;14177;51.520;6.764;2023-05-10T07:37:01;100754.94;;;15.60
69785;BMP280;14177;51.520;6.764;2023-05-10T07:39:28;100759.41;;;15.58
69785;BMP280;14177;51.520;6.764;2023-05-10T07:41:55;100759.41;;;15.58
69785;BMP280;14177;51.520;6.764;2023-05-10T07:44:22;100757.56;;;15.60
69785;BMP280;14177;51.520;6.764;2023-05-10T07:46:50;100765.97;;;15.66
69785;BMP280;14177;51.520;6.764;2023-05-10T07:49:17;100771.38;;;15.63
69785;BMP280;14177;51.520;6.764;2023-05-10T07:51:44;100767.97;;;15.61
69785;BMP280;14177;51.520;6.764;2023-05-10T07:54:11;100770.66;;;15.60
69785;BMP280;14177;51.520;6.764;2023-05-10T07:56:40;100770.34;;;15.66
69785;BMP280;14177;51.520;6.764;2023-05-10T07:59:16;100768.94;;;15.76
69785;BMP280;14177;51.520;6.764;2023-05-10T08:01:44;100775.25;;;15.88
69785;BMP280;14177;51.520;6.764;2023-05-10T08:04:11;100772.47;;;15.91
69785;BMP280;14177;51.520;6.764;2023-05-10T08:06:39;100779.66;;;16.03
69785;BMP280;14177;51.520;6.764;2023-05-10T08:09:08;100771.56;;;16.08
69785;BMP280;14177;51.520;6.764;2023-05-10T08:11:35;100778.16;;;16.15
69785;BMP280;14177;51.520;6.764;2023-05-10T08:14:02;100779.97;;;16.30
69785;BMP280;14177;51.520;6.764;2023-05-10T08:16:29;100776.28;;;16.49
69785;BMP280;14177;51.520;6.764;2023-05-10T08:18:56;100780.38;;;16.70
69785;BMP280;14177;51.520;6.764;2023-05-10T08:21:23;100773.72;;;16.94
69785;BMP280;14177;51.520;6.764;2023-05-10T08:23:50;100776.03;;;17.14
69785;BMP280;14177;51.520;6.764;2023-05-10T08:26:17;100776.94;;;17.28
69785;BMP280;14177;51.520;6.764;2023-05-10T08:28:44;100778.56;;;17.31
69785;BMP280;14177;51.520;6.764;2023-05-10T08:31:12;100779.72;;;17.25
69785;BMP280;14177;51.520;6.764;2023-05-10T08:33:38;100777.75;;;17.15
69785;BMP280;14177;51.520;6.764;2023-05-10T08:36:08;100772.00;;;17.08
69785;BMP280;14177;51.520;6.764;2023-05-10T08:38:35;100779.13;;;17.07
69785;BMP280;14177;51.520;6.764;2023-05-10T08:41:03;100794.19;;;17.03
69785;BMP280;14177;51.520;6.764;2023-05-10T08:43:31;100800.38;;;17.02
69785;BMP280;14177;51.520;6.764;2023-05-10T08:46:00;100796.22;;;16.98
69785;BMP280;14177;51.520;6.764;2023-05-10T08:48:34;100799.53;;;17.02
69785;BMP280;14177;51.520;6.764;2023-05-10T08:51:03;100801.97;;;17.05
69785;BMP280;14177;51.520;6.764;2023-05-10T08:53:33;100803.91;;;17.01
69785;BMP280;14177;51.520;6.764;2023-05-10T08:56:03;100804.09;;;16.98
69785;BMP280;14177;51.520;6.764;2023-05-10T08:58:30;100813.41;;;17.04
69785;BMP280;14177;51.520;6.764;2023-05-10T09:00:59;100815.88;;;17.07
69785;BMP280;14177;51.520;6.764;2023-05-10T09:03:26;100823.97;;;17.02
69785;BMP280;14177;51.520;6.764;2023-05-10T09:05:53;100825.84;;;17.00
69785;BMP280;14177;51.520;6.764;2023-05-10T09:08:23;100825.00;;;17.00
69785;BMP280;14177;51.520;6.764;2023-05-10T09:10:55;100828.28;;;17.03
69785;BMP280;14177;51.520;6.764;2023-05-10T09:13:23;100818.22;;;17.11
69785;BMP280;14177;51.520;6.764;2023-05-10T09:15:52;100820.09;;;17.09
69785;BMP280;14177;51.520;6.764;2023-05-10T09:18:19;100825.25;;;17.10
69785;BMP280;14177;51.520;6.764;2023-05-10T09:20:48;100834.25;;;17.07
69785;BMP280;14177;51.520;6.764;2023-05-10T09:23:15;100837.88;;;17.04
69785;BMP280;14177;51.520;6.764;2023-05-10T09:25:42;100837.69;;;17.07
69785;BMP280;14177;51.520;6.764;2023-05-10T09:28:11;100841.59;;;17.00
69785;BMP280;14177;51.520;6.764;2023-05-10T09:30:38;100842.88;;;16.93
69785;BMP280;14177;51.520;6.764;2023-05-10T09:33:06;100851.78;;;16.91
69785;BMP280;14177;51.520;6.764;2023-05-10T09:35:33;100851.06;;;16.87
69785;BMP280;14177;51.520;6.764;2023-05-10T09:38:04;100849.81;;;16.79
69785;BMP280;14177;51.520;6.764;2023-05-10T09:40:32;100855.13;;;16.77
69785;BMP280;14177;51.520;6.764;2023-05-10T09:43:05;100859.22;;;16.67
69785;BMP280;14177;51.520;6.764;2023-05-10T09:45:35;100868.84;;;16.67
69785;BMP280;14177;51.520;6.764;2023-05-10T09:48:05;100868.69;;;16.70
69785;BMP280;14177;51.520;6.764;2023-05-10T09:50:33;100867.41;;;16.61
69785;BMP280;14177;51.520;6.764;2023-05-10T09:53:02;100875.13;;;16.64
69785;BMP280;14177;51.520;6.764;2023-05-10T09:55:46;100869.69;;;16.67
69785;BMP280;14177;51.520;6.764;2023-05-10T09:58:13;100871.47;;;16.67
69785;BMP280;14177;51.520;6.764;2023-05-10T10:00:43;100873.94;;;16.70
69785;BMP280;14177;51.520;6.764;2023-05-10T10:03:16;100872.66;;;16.61
69785;BMP280;14177;51.520;6.764;2023-05-10T10:05:45;100871.78;;;16.45
69785;BMP280;14177;51.520;6.764;2023-05-10T10:08:14;100869.31;;;16.25
69785;BMP280;14177;51.520;6.764;2023-05-10T10:10:42;100883.81;;;16.15
69785;BMP280;14177;51.520;6.764;2023-05-10T10:13:12;100876.28;;;16.09
69785;BMP280;14177;51.520;6.764;2023-05-10T10:15:39;100879.31;;;16.02
69785;BMP280;14177;51.520;6.764;2023-05-10T10:18:07;100884.72;;;15.99
69785;BMP280;14177;51.520;6.764;2023-05-10T10:20:37;100887.44;;;15.97
69785;BMP280;14177;51.520;6.764;2023-05-10T10:23:04;100880.25;;;16.01
69785;BMP280;14177;51.520;6.764;2023-05-10T10:25:31;100883.53;;;16.04
69785;BMP280;14177;51.520;6.764;2023-05-10T10:28:21;100880.53;;;16.12
69785;BMP280;14177;51.520;6.764;2023-05-10T10:30:56;100887.34;;;16.31
69785;BMP280;14177;51.520;6.764;2023-05-10T10:33:51;100889.81;;;16.51
69785;BMP280;14177;51.520;6.764;2023-05-10T10:36:20;100886.69;;;16.60
69785;BMP280;14177;51.520;6.764;2023-05-10T10:41:35;100892.53;;;16.65
69785;BMP280;14177;51.520;6.764;2023-05-10T10:55:11;100896.28;;;17.08
69785;BMP280;14177;51.520;6.764;2023-05-10T10:57:45;100902.03;;;17.14
69785;BMP280;14177;51.520;6.764;2023-05-10T11:03:04;100902.31;;;17.09
69785;BMP280;14177;51.520;6.764;2023-05-10T11:05:48;100894.75;;;17.19
69785;BMP280;14177;51.520;6.764;2023-05-10T11:08:34;100901.19;;;17.29
69785;BMP280;14177;51.520;6.764;2023-05-10T11:11:06;100903.72;;;17.30
69785;BMP280;14177;51.520;6.764;2023-05-10T11:13:40;100902.47;;;17.37
69785;BMP280;14177;51.520;6.764;2023-05-10T11:16:18;100901.94;;;17.46
69785;BMP280;14177;51.520;6.764;2023-05-10T11:19:16;100898.97;;;17.52
69785;BMP280;14177;51.520;6.764;2023-05-10T11:22:12;100898.44;;;17.61
69785;BMP280;14177;51.520;6.764;2023-05-10T11:24:56;100896.81;;;17.74
69785;BMP280;14177;51.520;6.764;2023-05-10T11:27:23;100897.06;;;17.70
69785;BMP280;14177;51.520;6.764;2023-05-10T11:29:53;100899.09;;;17.65
69785;BMP280;14177;51.520;6.764;2023-05-10T11:32:20;100906.03;;;17.66
69785;BMP280;14177;51.520;6.764;2023-05-10T11:34:48;100900.44;;;17.72
69785;BMP280;14177;51.520;6.764;2023-05-10T11:37:15;100906.81;;;17.68
69785;BMP280;14177;51.520;6.764;2023-05-10T11:39:46;100907.84;;;17.65
69785;BMP280;14177;51.520;6.764;2023-05-10T11:42:14;100906.31;;;17.61
69785;BMP280;14177;51.520;6.764;2023-05-10T11:44:41;100903.59;;;17.63
69785;BMP280;14177;51.520;6.764;2023-05-10T11:47:11;100913.69;;;17.70
69785;BMP280;14177;51.520;6.764;2023-05-10T11:49:38;100911.22;;;17.67
69785;BMP280;14177;51.520;6.764;2023-05-10T11:52:09;100912.22;;;17.65
69785;BMP280;14177;51.520;6.764;2023-05-10T11:54:37;100909.59;;;17.65
69785;BMP280;14177;51.520;6.764;2023-05-10T11:57:04;100914.69;;;17.68
69785;BMP280;14177;51.520;6.764;2023-05-10T11:59:31;100912.22;;;17.65
69785;BMP280;14177;51.520;6.764;2023-05-10T12:01:59;100916.38;;;17.69
69785;BMP280;14177;51.520;6.764;2023-05-10T12:04:26;100917.91;;;17.73
69785;BMP280;14177;51.520;6.764;2023-05-10T12:06:56;100913.56;;;17.72
69785;BMP280;14177;51.520;6.764;2023-05-10T12:09:23;100919.06;;;17.83
69785;BMP280;14177;51.520;6.764;2023-05-10T12:11:56;100916.72;;;17.92
69785;BMP280;14177;51.520;6.764;2023-05-10T12:14:26;100922.75;;;17.94
69785;BMP280;14177;51.520;6.764;2023-05-10T12:16:53;100921.34;;;17.89
69785;BMP280;14177;51.520;6.764;2023-05-10T12:19:20;100916.06;;;17.89
69785;BMP280;14177;51.520;6.764;2023-05-10T12:21:48;100920.41;;;17.90
69785;BMP280;14177;51.520;6.764;2023-05-10T12:24:15;100914.84;;;17.80
69785;BMP280;14177;51.520;6.764;2023-05-10T12:26:46;100921.63;;;17.69
69785;BMP280;14177;51.520;6.764;2023-05-10T12:29:17;100910.38;;;17.67
69785;BMP280;14177;51.520;6.764;2023-05-10T12:31:55;100910.78;;;17.75
69785;BMP280;14177;51.520;6.764;2023-05-10T12:34:34;100921.91;;;17.94
69785;BMP280;14177;51.520;6.764;2023-05-10T12:37:03;100917.91;;;18.16
69785;BMP280;14177;51.520;6.764;2023-05-10T12:39:44;100924.00;;;18.32
69785;BMP280;14177;51.520;6.764;2023-05-10T12:42:12;100927.00;;;18.40
69785;BMP280;14177;51.520;6.764;2023-05-10T12:44:39;100922.19;;;18.46
69785;BMP280;14177;51.520;6.764;2023-05-10T12:47:07;100920.91;;;18.53
69785;BMP280;14177;51.520;6.764;2023-05-10T12:49:34;100917.59;;;18.64
69785;BMP280;14177;51.520;6.764;2023-05-10T12:52:01;100922.94;;;18.90
69785;BMP280;14177;51.520;6.764;2023-05-10T12:54:28;100918.41;;;19.20
69785;BMP280;14177;51.520;6.764;2023-05-10T12:56:55;100926.41;;;19.45
69785;BMP280;14177;51.520;6.764;2023-05-10T12:59:23;100905.19;;;19.73
69785;BMP280;14177;51.520;6.764;2023-05-10T13:01:50;100925.59;;;19.83
69785;BMP280;14177;51.520;6.764;2023-05-10T13:04:16;100929.16;;;20.09
69785;BMP280;14177;51.520;6.764;2023-05-10T13:06:44;100922.41;;;20.30
69785;BMP280;14177;51.520;6.764;2023-05-10T13:09:11;100926.34;;;20.37
69785;BMP280;14177;51.520;6.764;2023-05-10T13:11:38;100921.78;;;20.39
69785;BMP280;14177;51.520;6.764;2023-05-10T13:14:05;100927.50;;;20.33
69785;BMP280;14177;51.520;6.764;2023-05-10T13:16:32;100923.91;;;20.34
69785;BMP280;14177;51.520;6.764;2023-05-10T13:18:59;100916.19;;;20.43
69785;BMP280;14177;51.520;6.764;2023-05-10T13:21:26;100926.63;;;20.70
69785;BMP280;14177;51.520;6.764;2023-05-10T13:23:53;100921.75;;;20.88
69785;BMP280;14177;51.520;6.764;2023-05-10T13:26:20;100930.63;;;20.88
69785;BMP280;14177;51.520;6.764;2023-05-10T13:28:50;100918.81;;;20.68
69785;BMP280;14177;51.520;6.764;2023-05-10T13:31:18;100928.94;;;20.62
69785;BMP280;14177;51.520;6.764;2023-05-10T13:33:45;100927.69;;;20.55
69785;BMP280;14177;51.520;6.764;2023-05-10T13:36:12;100920.84;;;20.40
69785;BMP280;14177;51.520;6.764;2023-05-10T13:38:39;100927.06;;;20.39
69785;BMP280;14177;51.520;6.764;2023-05-10T13:41:06;100917.00;;;20.44
69785;BMP280;14177;51.520;6.764;2023-05-10T13:43:34;100918.38;;;20.62
69785;BMP280;14177;51.520;6.764;2023-05-10T13:46:02;100921.22;;;20.96
69785;BMP280;14177;51.520;6.764;2023-05-10T13:48:29;100919.47;;;21.20
69785;BMP280;14177;51.520;6.764;2023-05-10T13:50:56;100908.69;;;21.46
69785;BMP280;14177;51.520;6.764;2023-05-10T13:53:23;100900.69;;;21.82
69785;BMP280;14177;51.520;6.764;2023-05-10T13:55:50;100906.72;;;21.95
69785;BMP280;14177;51.520;6.764;2023-05-10T13:58:17;100903.13;;;21.85
69785;BMP280;14177;51.520;6.764;2023-05-10T14:00:44;100912.97;;;21.83
69785;BMP280;14177;51.520;6.764;2023-05-10T14:03:10;100901.81;;;22.02
69785;BMP280;14177;51.520;6.764;2023-05-10T14:05:38;100906.28;;;22.12
69785;BMP280;14177;51.520;6.764;2023-05-10T14:08:05;100907.16;;;22.23
69785;BMP280;14177;51.520;6.764;2023-05-10T14:10:32;100892.63;;;22.29
69785;BMP280;14177;51.520;6.764;2023-05-10T14:12:59;100902.53;;;22.60
69785;BMP280;14177;51.520;6.764;2023-05-10T14:15:26;100897.84;;;22.74
69785;BMP280;14177;51.520;6.764;2023-05-10T14:17:53;100893.59;;;22.94
69785;BMP280;14177;51.520;6.764;2023-05-10T14:20:20;100903.00;;;23.09
69785;BMP280;14177;51.520;6.764;2023-05-10T14:22:47;100899.00;;;23.25
69785;BMP280;14177;51.520;6.764;2023-05-10T14:25:14;100900.97;;;23.43
69785;BMP280;14177;51.520;6.764;2023-05-10T14:27:42;100897.59;;;23.41
69785;BMP280;14177;51.520;6.764;2023-05-10T14:30:09;100885.78;;;23.45
69785;BMP280;14177;51.520;6.764;2023-05-10T14:32:36;100895.34;;;23.37